sensor_id;sensor_type;location;lat;lon;timestamp;temperature;humidity
66708;DHT22;53622;0.000;0.000;2022-11-20T00:01:14;21.20;57.40
66708;DHT22;53622;0.000;0.000;2022-11-20T00:03:45;21.20;57.40
66708;DHT22;53622;0.000;0.000;2022-11-20T00:06:16;21.20;57.40
66708;DHT22;53622;0.000;0.000;2022-11-20T00:08:46;21.10;57.30
66708;DHT22;53622;0.000;0.000;2022-11-20T00:11:17;21.10;57.30
66708;DHT22;53622;0.000;0.000;2022-11-20T00:13:48;21.10;57.30
66708;DHT22;53622;0.000;0.000;2022-11-20T00:16:19;21.10;57.30
66708;DHT22;53622;0.000;0.000;2022-11-20T00:18:51;21.10;57.40
66708;DHT22;53622;0.000;0.000;2022-11-20T00:21:22;21.10;57.30
66708;DHT22;53622;0.000;0.000;2022-11-20T00:23:53;21.10;57.30
66708;DHT22;53622;0.000;0.000;2022-11-20T00:26:24;21.10;57.30
66708;DHT22;53622;0.000;0.000;2022-11-20T00:28:55;21.10;57.30
66708;DHT22;53622;0.000;0.000;2022-11-20T00:31:25;21.00;57.30
66708;DHT22;53622;0.000;0.000;2022-11-20T00:33:56;21.00;57.30
66708;DHT22;53622;0.000;0.000;2022-11-20T00:36:27;21.00;57.20
66708;DHT22;53622;0.000;0.000;2022-11-20T00:38:58;21.00;57.20
66708;DHT22;53622;0.000;0.000;2022-11-20T00:41:28;21.00;57.30
66708;DHT22;53622;0.000;0.000;2022-11-20T00:43:58;21.00;57.20
66708;DHT22;53622;0.000;0.000;2022-11-20T00:46:27;21.00;57.20
66708;DHT22;53622;0.000;0.000;2022-11-20T00:48:58;21.00;57.10
66708;DHT22;53622;0.000;0.000;2022-11-20T00:51:28;21.00;57.20
66708;DHT22;53622;0.000;0.000;2022-11-20T00:53:57;21.00;57.20
66708;DHT22;53622;0.000;0.000;2022-11-20T00:56:28;20.90;57.10
66708;DHT22;53622;0.000;0.000;2022-11-20T00:58:59;20.90;57.10
66708;DHT22;53622;0.000;0.000;2022-11-20T01:01:29;20.90;57.10
66708;DHT22;53622;0.000;0.000;2022-11-20T01:04:00;20.90;57.10
66708;DHT22;53622;0.000;0.000;2022-11-20T01:06:31;20.90;57.10
66708;DHT22;53622;0.000;0.000;2022-11-20T01:09:01;20.90;57.10
66708;DHT22;53622;0.000;0.000;2022-11-20T01:11:33;20.90;57.10
66708;DHT22;53622;0.000;0.000;2022-11-20T01:14:04;20.90;57.10
66708;DHT22;53622;0.000;0.000;2022-11-20T01:16:35;20.90;57.10
66708;DHT22;53622;0.000;0.000;2022-11-20T01:19:09;20.90;57.10
66708;DHT22;53622;0.000;0.000;2022-11-20T01:21:45;20.90;57.10
66708;DHT22;53622;0.000;0.000;2022-11-20T01:24:15;20.90;57.00
66708;DHT22;53622;0.000;0.000;2022-11-20T01:26:48;20.90;57.00
66708;DHT22;53622;0.000;0.000;2022-11-20T01:29:19;20.90;57.00
66708;DHT22;53622;0.000;0.000;2022-11-20T01:31:49;20.80;57.00
66708;DHT22;53622;0.000;0.000;2022-11-20T01:34:22;20.80;57.00
66708;DHT22;53622;0.000;0.000;2022-11-20T01:36:52;20.80;57.00
66708;DHT22;53622;0.000;0.000;2022-11-20T01:39:23;20.80;57.00
66708;DHT22;53622;0.000;0.000;2022-11-20T01:41:53;20.80;57.10
66708;DHT22;53622;0.000;0.000;2022-11-20T01:44:48;20.80;57.00
66708;DHT22;53622;0.000;0.000;2022-11-20T01:47:23;20.80;57.00
66708;DHT22;53622;0.000;0.000;2022-11-20T01:49:59;20.80;57.10
66708;DHT22;53622;0.000;0.000;2022-11-20T01:52:36;20.80;57.10
66708;DHT22;53622;0.000;0.000;2022-11-20T01:55:09;20.80;57.00
66708;DHT22;53622;0.000;0.000;2022-11-20T01:57:41;20.70;57.00
66708;DHT22;53622;0.000;0.000;2022-11-20T02:00:13;20.70;57.00
66708;DHT22;53622;0.000;0.000;2022-11-20T02:02:47;20.70;57.00
66708;DHT22;53622;0.000;0.000;2022-11-20T02:05:24;20.70;57.00
66708;DHT22;53622;0.000;0.000;2022-11-20T02:07:55;20.70;57.00
66708;DHT22;53622;0.000;0.000;2022-11-20T02:10:26;20.70;56.90
66708;DHT22;53622;0.000;0.000;2022-11-20T02:12:56;20.70;56.90
66708;DHT22;53622;0.000;0.000;2022-11-20T02:15:43;20.70;56.90
66708;DHT22;53622;0.000;0.000;2022-11-20T02:18:14;20.70;56.90
66708;DHT22;53622;0.000;0.000;2022-11-20T02:20:47;20.70;56.90
66708;DHT22;53622;0.000;0.000;2022-11-20T02:23:21;20.70;57.00
66708;DHT22;53622;0.000;0.000;2022-11-20T02:25:53;20.70;56.90
66708;DHT22;53622;0.000;0.000;2022-11-20T02:28:22;20.60;56.90
66708;DHT22;53622;0.000;0.000;2022-11-20T02:30:52;20.70;57.00
66708;DHT22;53622;0.000;0.000;2022-11-20T02:33:21;20.60;56.90
66708;DHT22;53622;0.000;0.000;2022-11-20T02:35:50;20.60;57.00
66708;DHT22;53622;0.000;0.000;2022-11-20T02:38:19;20.60;57.00
66708;DHT22;53622;0.000;0.000;2022-11-20T02:40:49;20.60;56.90
66708;DHT22;53622;0.000;0.000;2022-11-20T02:43:23;20.60;56.90
66708;DHT22;53622;0.000;0.000;2022-11-20T02:45:53;20.60;56.90
66708;DHT22;53622;0.000;0.000;2022-11-20T02:48:22;20.60;56.90
66708;DHT22;53622;0.000;0.000;2022-11-20T02:50:51;20.60;56.90
66708;DHT22;53622;0.000;0.000;2022-11-20T02:53:21;20.60;56.90
66708;DHT22;53622;0.000;0.000;2022-11-20T02:55:50;20.60;56.90
66708;DHT22;53622;0.000;0.000;2022-11-20T02:58:19;20.60;57.00
66708;DHT22;53622;0.000;0.000;2022-11-20T03:00:49;20.60;57.00
66708;DHT22;53622;0.000;0.000;2022-11-20T03:03:19;20.60;56.90
66708;DHT22;53622;0.000;0.000;2022-11-20T03:05:48;20.60;57.00
66708;DHT22;53622;0.000;0.000;2022-11-20T03:08:17;20.60;56.90
66708;DHT22;53622;0.000;0.000;2022-11-20T03:10:46;20.60;56.90
66708;DHT22;53622;0.000;0.000;2022-11-20T03:13:15;20.50;56.80
66708;DHT22;53622;0.000;0.000;2022-11-20T03:15:45;20.50;56.90
66708;DHT22;53622;0.000;0.000;2022-11-20T03:18:15;20.60;57.50
66708;DHT22;53622;0.000;0.000;2022-11-20T03:20:44;20.50;56.90
66708;DHT22;53622;0.000;0.000;2022-11-20T03:23:14;20.60;56.90
66708;DHT22;53622;0.000;0.000;2022-11-20T03:25:43;20.50;56.80
66708;DHT22;53622;0.000;0.000;2022-11-20T03:28:12;20.50;56.90
66708;DHT22;53622;0.000;0.000;2022-11-20T03:30:41;20.50;56.80
66708;DHT22;53622;0.000;0.000;2022-11-20T03:33:11;20.50;56.80
66708;DHT22;53622;0.000;0.000;2022-11-20T03:35:41;20.50;56.90
66708;DHT22;53622;0.000;0.000;2022-11-20T03:38:10;20.50;56.90
66708;DHT22;53622;0.000;0.000;2022-11-20T03:40:39;20.50;56.80
66708;DHT22;53622;0.000;0.000;2022-11-20T03:43:09;20.50;56.80
66708;DHT22;53622;0.000;0.000;2022-11-20T03:45:39;20.50;56.80
66708;DHT22;53622;0.000;0.000;2022-11-20T03:48:08;20.50;56.80
66708;DHT22;53622;0.000;0.000;2022-11-20T03:50:37;20.40;56.80
66708;DHT22;53622;0.000;0.000;2022-11-20T03:53:07;20.40;56.70
66708;DHT22;53622;0.000;0.000;2022-11-20T03:55:37;20.40;56.80
66708;DHT22;53622;0.000;0.000;2022-11-20T03:58:06;20.40;56.70
66708;DHT22;53622;0.000;0.000;2022-11-20T04:00:35;20.40;56.80
66708;DHT22;53622;0.000;0.000;2022-11-20T04:03:04;20.50;56.80
66708;DHT22;53622;0.000;0.000;2022-11-20T04:05:34;20.40;56.70
66708;DHT22;53622;0.000;0.000;2022-11-20T04:08:03;20.40;56.80
66708;DHT22;53622;0.000;0.000;2022-11-20T04:10:34;20.40;56.70
66708;DHT22;53622;0.000;0.000;2022-11-20T04:13:03;20.40;56.70
66708;DHT22;53622;0.000;0.000;2022-11-20T04:15:32;20.40;56.70
66708;DHT22;53622;0.000;0.000;2022-11-20T04:18:05;20.40;56.60
66708;DHT22;53622;0.000;0.000;2022-11-20T04:20:35;20.40;56.70
66708;DHT22;53622;0.000;0.000;2022-11-20T04:23:04;20.40;57.30
66708;DHT22;53622;0.000;0.000;2022-11-20T04:25:35;20.40;56.70
66708;DHT22;53622;0.000;0.000;2022-11-20T04:28:04;20.40;56.70
66708;DHT22;53622;0.000;0.000;2022-11-20T04:30:33;20.40;56.70
66708;DHT22;53622;0.000;0.000;2022-11-20T04:33:02;20.40;56.70
66708;DHT22;53622;0.000;0.000;2022-11-20T04:35:34;20.40;56.60
66708;DHT22;53622;0.000;0.000;2022-11-20T04:38:03;20.40;56.70
66708;DHT22;53622;0.000;0.000;2022-11-20T04:40:34;20.40;56.70
66708;DHT22;53622;0.000;0.000;2022-11-20T04:43:03;20.40;56.70
66708;DHT22;53622;0.000;0.000;2022-11-20T04:45:32;20.30;56.60
66708;DHT22;53622;0.000;0.000;2022-11-20T04:48:02;20.30;56.60
66708;DHT22;53622;0.000;0.000;2022-11-20T04:50:31;20.30;56.60
66708;DHT22;53622;0.000;0.000;2022-11-20T04:53:00;20.40;56.70
66708;DHT22;53622;0.000;0.000;2022-11-20T04:55:29;20.30;56.60
66708;DHT22;53622;0.000;0.000;2022-11-20T04:58:00;20.30;56.60
66708;DHT22;53622;0.000;0.000;2022-11-20T05:00:29;20.30;56.60
66708;DHT22;53622;0.000;0.000;2022-11-20T05:02:58;20.30;56.60
66708;DHT22;53622;0.000;0.000;2022-11-20T05:05:27;20.30;56.60
66708;DHT22;53622;0.000;0.000;2022-11-20T05:07:57;20.30;56.60
66708;DHT22;53622;0.000;0.000;2022-11-20T05:10:29;20.30;56.60
66708;DHT22;53622;0.000;0.000;2022-11-20T05:13:00;20.30;56.60
66708;DHT22;53622;0.000;0.000;2022-11-20T05:15:29;20.30;56.70
66708;DHT22;53622;0.000;0.000;2022-11-20T05:17:58;20.30;56.70
66708;DHT22;53622;0.000;0.000;2022-11-20T05:20:27;20.20;56.60
66708;DHT22;53622;0.000;0.000;2022-11-20T05:22:57;20.20;57.20
66708;DHT22;53622;0.000;0.000;2022-11-20T05:25:26;20.30;56.60
66708;DHT22;53622;0.000;0.000;2022-11-20T05:27:55;20.30;56.60
66708;DHT22;53622;0.000;0.000;2022-11-20T05:30:25;20.20;56.60
66708;DHT22;53622;0.000;0.000;2022-11-20T05:32:55;20.30;56.60
66708;DHT22;53622;0.000;0.000;2022-11-20T05:35:24;20.20;56.70
66708;DHT22;53622;0.000;0.000;2022-11-20T05:37:53;20.30;57.10
66708;DHT22;53622;0.000;0.000;2022-11-20T05:40:22;20.30;57.00
66708;DHT22;53622;0.000;0.000;2022-11-20T05:42:51;20.30;56.90
66708;DHT22;53622;0.000;0.000;2022-11-20T05:45:20;20.30;57.10
66708;DHT22;53622;0.000;0.000;2022-11-20T05:47:51;20.30;57.10
66708;DHT22;53622;0.000;0.000;2022-11-20T05:50:20;20.30;57.10
66708;DHT22;53622;0.000;0.000;2022-11-20T05:52:50;20.30;57.10
66708;DHT22;53622;0.000;0.000;2022-11-20T05:55:19;20.30;57.20
66708;DHT22;53622;0.000;0.000;2022-11-20T05:57:48;20.30;57.20
66708;DHT22;53622;0.000;0.000;2022-11-20T06:00:17;20.30;57.10
66708;DHT22;53622;0.000;0.000;2022-11-20T06:02:47;20.30;57.20
66708;DHT22;53622;0.000;0.000;2022-11-20T06:05:17;20.30;57.10
66708;DHT22;53622;0.000;0.000;2022-11-20T06:07:47;20.30;57.20
66708;DHT22;53622;0.000;0.000;2022-11-20T06:10:16;20.30;57.20
66708;DHT22;53622;0.000;0.000;2022-11-20T06:12:45;20.20;57.10
66708;DHT22;53622;0.000;0.000;2022-11-20T06:15:14;20.20;57.20
66708;DHT22;53622;0.000;0.000;2022-11-20T06:17:43;20.20;57.20
66708;DHT22;53622;0.000;0.000;2022-11-20T06:20:13;20.20;57.20
66708;DHT22;53622;0.000;0.000;2022-11-20T06:22:44;20.20;57.20
66708;DHT22;53622;0.000;0.000;2022-11-20T06:25:13;20.20;57.20
66708;DHT22;53622;0.000;0.000;2022-11-20T06:27:42;20.30;57.20
66708;DHT22;53622;0.000;0.000;2022-11-20T06:30:12;20.30;57.20
66708;DHT22;53622;0.000;0.000;2022-11-20T06:32:42;20.20;57.20
66708;DHT22;53622;0.000;0.000;2022-11-20T06:35:11;20.20;57.20
66708;DHT22;53622;0.000;0.000;2022-11-20T06:37:40;20.20;57.20
66708;DHT22;53622;0.000;0.000;2022-11-20T06:40:12;20.20;57.20
66708;DHT22;53622;0.000;0.000;2022-11-20T06:42:41;20.20;57.20
66708;DHT22;53622;0.000;0.000;2022-11-20T06:45:10;20.20;57.20
66708;DHT22;53622;0.000;0.000;2022-11-20T06:47:39;20.20;57.10
66708;DHT22;53622;0.000;0.000;2022-11-20T06:50:09;20.20;57.20
66708;DHT22;53622;0.000;0.000;2022-11-20T06:52:38;20.20;57.20
66708;DHT22;53622;0.000;0.000;2022-11-20T06:55:11;20.20;56.70
66708;DHT22;53622;0.000;0.000;2022-11-20T06:57:41;20.20;57.10
66708;DHT22;53622;0.000;0.000;2022-11-20T07:00:11;20.10;57.00
66708;DHT22;53622;0.000;0.000;2022-11-20T07:02:40;20.10;57.10
66708;DHT22;53622;0.000;0.000;2022-11-20T07:05:09;20.10;57.10
66708;DHT22;53622;0.000;0.000;2022-11-20T07:07:39;20.10;57.10
66708;DHT22;53622;0.000;0.000;2022-11-20T07:10:10;20.10;57.10
66708;DHT22;53622;0.000;0.000;2022-11-20T07:12:40;20.10;57.10
66708;DHT22;53622;0.000;0.000;2022-11-20T07:15:09;20.10;57.70
66708;DHT22;53622;0.000;0.000;2022-11-20T07:17:38;20.20;57.00
66708;DHT22;53622;0.000;0.000;2022-11-20T07:20:09;20.20;57.00
66708;DHT22;53622;0.000;0.000;2022-11-20T07:22:38;20.20;57.10
66708;DHT22;53622;0.000;0.000;2022-11-20T07:25:09;20.20;57.10
66708;DHT22;53622;0.000;0.000;2022-11-20T07:27:40;20.10;57.00
66708;DHT22;53622;0.000;0.000;2022-11-20T07:30:09;20.10;57.00
66708;DHT22;53622;0.000;0.000;2022-11-20T07:32:39;20.10;57.10
66708;DHT22;53622;0.000;0.000;2022-11-20T07:35:08;20.10;57.10
66708;DHT22;53622;0.000;0.000;2022-11-20T07:37:37;20.20;56.80
66708;DHT22;53622;0.000;0.000;2022-11-20T07:40:07;20.60;56.30
66708;DHT22;53622;0.000;0.000;2022-11-20T07:42:36;20.90;55.60
66708;DHT22;53622;0.000;0.000;2022-11-20T07:45:08;21.10;55.20
66708;DHT22;53622;0.000;0.000;2022-11-20T07:47:37;21.30;54.80
66708;DHT22;53622;0.000;0.000;2022-11-20T07:50:08;21.50;54.60
66708;DHT22;53622;0.000;0.000;2022-11-20T07:52:37;21.60;54.40
66708;DHT22;53622;0.000;0.000;2022-11-20T07:55:07;21.70;54.20
66708;DHT22;53622;0.000;0.000;2022-11-20T07:57:37;21.70;54.10
66708;DHT22;53622;0.000;0.000;2022-11-20T08:00:10;21.70;54.30
66708;DHT22;53622;0.000;0.000;2022-11-20T08:02:40;21.70;54.40
66708;DHT22;53622;0.000;0.000;2022-11-20T08:05:09;21.70;54.70
66708;DHT22;53622;0.000;0.000;2022-11-20T08:07:40;21.80;54.60
66708;DHT22;53622;0.000;0.000;2022-11-20T08:10:11;21.80;54.80
66708;DHT22;53622;0.000;0.000;2022-11-20T08:12:44;21.90;55.00
66708;DHT22;53622;0.000;0.000;2022-11-20T08:15:33;21.90;55.00
66708;DHT22;53622;0.000;0.000;2022-11-20T08:18:04;21.90;54.90
66708;DHT22;53622;0.000;0.000;2022-11-20T08:20:53;21.90;54.70
66708;DHT22;53622;0.000;0.000;2022-11-20T08:23:23;21.90;54.80
66708;DHT22;53622;0.000;0.000;2022-11-20T08:25:52;22.00;54.80
66708;DHT22;53622;0.000;0.000;2022-11-20T08:28:21;21.90;54.90
66708;DHT22;53622;0.000;0.000;2022-11-20T08:30:58;22.00;54.90
66708;DHT22;53622;0.000;0.000;2022-11-20T08:33:27;22.00;54.90
66708;DHT22;53622;0.000;0.000;2022-11-20T08:35:59;22.00;54.80
66708;DHT22;53622;0.000;0.000;2022-11-20T08:38:30;22.10;54.90
66708;DHT22;53622;0.000;0.000;2022-11-20T08:41:00;22.00;54.90
66708;DHT22;53622;0.000;0.000;2022-11-20T08:43:47;22.00;54.90
66708;DHT22;53622;0.000;0.000;2022-11-20T08:46:18;21.90;55.00
66708;DHT22;53622;0.000;0.000;2022-11-20T08:48:47;21.80;55.50
66708;DHT22;53622;0.000;0.000;2022-11-20T08:51:16;21.70;55.80
66708;DHT22;53622;0.000;0.000;2022-11-20T08:53:46;21.70;56.00
66708;DHT22;53622;0.000;0.000;2022-11-20T08:56:16;21.70;56.80
66708;DHT22;53622;0.000;0.000;2022-11-20T08:58:45;21.60;57.10
66708;DHT22;53622;0.000;0.000;2022-11-20T09:01:36;21.70;57.00
66708;DHT22;53622;0.000;0.000;2022-11-20T09:04:07;21.60;57.50
66708;DHT22;53622;0.000;0.000;2022-11-20T09:06:36;21.70;56.90
66708;DHT22;53622;0.000;0.000;2022-11-20T09:09:05;21.60;56.70
66708;DHT22;53622;0.000;0.000;2022-11-20T09:11:34;21.70;56.90
66708;DHT22;53622;0.000;0.000;2022-11-20T09:14:04;21.70;57.00
66708;DHT22;53622;0.000;0.000;2022-11-20T09:16:35;21.60;56.20
66708;DHT22;53622;0.000;0.000;2022-11-20T09:19:05;21.50;55.30
66708;DHT22;53622;0.000;0.000;2022-11-20T09:21:54;21.50;56.20
66708;DHT22;53622;0.000;0.000;2022-11-20T09:24:27;21.60;56.60
66708;DHT22;53622;0.000;0.000;2022-11-20T09:26:57;21.60;56.60
66708;DHT22;53622;0.000;0.000;2022-11-20T09:29:27;21.70;56.80
66708;DHT22;53622;0.000;0.000;2022-11-20T09:31:57;21.60;56.70
66708;DHT22;53622;0.000;0.000;2022-11-20T09:34:27;21.70;56.60
66708;DHT22;53622;0.000;0.000;2022-11-20T09:36:56;21.70;56.70
66708;DHT22;53622;0.000;0.000;2022-11-20T09:39:31;21.80;56.60
66708;DHT22;53622;0.000;0.000;2022-11-20T09:42:08;21.70;56.70
66708;DHT22;53622;0.000;0.000;2022-11-20T09:44:57;21.70;56.80
66708;DHT22;53622;0.000;0.000;2022-11-20T09:47:43;21.80;56.80
66708;DHT22;53622;0.000;0.000;2022-11-20T09:50:26;21.80;56.80
66708;DHT22;53622;0.000;0.000;2022-11-20T09:53:13;21.80;56.90
66708;DHT22;53622;0.000;0.000;2022-11-20T09:55:46;21.70;56.90
66708;DHT22;53622;0.000;0.000;2022-11-20T09:58:26;21.70;56.80
66708;DHT22;53622;0.000;0.000;2022-11-20T10:01:10;21.70;56.80
66708;DHT22;53622;0.000;0.000;2022-11-20T10:03:55;21.80;56.90
66708;DHT22;53622;0.000;0.000;2022-11-20T10:06:30;21.80;57.20
66708;DHT22;53622;0.000;0.000;2022-11-20T10:09:13;21.70;57.00
66708;DHT22;53622;0.000;0.000;2022-11-20T10:11:51;21.80;57.20
66708;DHT22;53622;0.000;0.000;2022-11-20T10:14:31;21.70;56.90
66708;DHT22;53622;0.000;0.000;2022-11-20T10:17:12;21.70;57.10
66708;DHT22;53622;0.000;0.000;2022-11-20T10:19:54;21.60;56.90
66708;DHT22;53622;0.000;0.000;2022-11-20T10:22:37;21.70;57.20
66708;DHT22;53622;0.000;0.000;2022-11-20T10:25:14;21.70;57.40
66708;DHT22;53622;0.000;0.000;2022-11-20T10:27:58;21.70;57.20
66708;DHT22;53622;0.000;0.000;2022-11-20T10:30:35;21.70;57.10
66708;DHT22;53622;0.000;0.000;2022-11-20T10:33:13;21.80;57.10
66708;DHT22;53622;0.000;0.000;2022-11-20T10:35:50;21.80;57.00
66708;DHT22;53622;0.000;0.000;2022-11-20T10:38:24;21.80;56.90
66708;DHT22;53622;0.000;0.000;2022-11-20T10:40:58;21.80;57.30
66708;DHT22;53622;0.000;0.000;2022-11-20T10:43:43;21.70;57.30
66708;DHT22;53622;0.000;0.000;2022-11-20T10:46:16;21.70;57.30
66708;DHT22;53622;0.000;0.000;2022-11-20T10:48:47;21.70;57.20
66708;DHT22;53622;0.000;0.000;2022-11-20T10:51:27;21.70;57.20
66708;DHT22;53622;0.000;0.000;2022-11-20T10:54:10;21.70;57.30
66708;DHT22;53622;0.000;0.000;2022-11-20T10:56:45;21.80;57.40
66708;DHT22;53622;0.000;0.000;2022-11-20T10:59:50;21.70;57.50
66708;DHT22;53622;0.000;0.000;2022-11-20T11:02:31;21.80;57.80
66708;DHT22;53622;0.000;0.000;2022-11-20T11:05:14;21.70;57.30
66708;DHT22;53622;0.000;0.000;2022-11-20T11:07:50;21.80;58.00
66708;DHT22;53622;0.000;0.000;2022-11-20T11:10:24;21.70;57.10
66708;DHT22;53622;0.000;0.000;2022-11-20T11:12:53;21.70;57.10
66708;DHT22;53622;0.000;0.000;2022-11-20T11:15:27;21.70;57.20
66708;DHT22;53622;0.000;0.000;2022-11-20T11:17:57;21.70;57.10
66708;DHT22;53622;0.000;0.000;2022-11-20T11:20:26;21.80;57.30
66708;DHT22;53622;0.000;0.000;2022-11-20T11:22:58;21.70;57.80
66708;DHT22;53622;0.000;0.000;2022-11-20T11:25:30;21.60;57.90
66708;DHT22;53622;0.000;0.000;2022-11-20T11:28:03;21.60;58.30
66708;DHT22;53622;0.000;0.000;2022-11-20T11:30:42;21.60;58.40
66708;DHT22;53622;0.000;0.000;2022-11-20T11:33:18;21.70;58.60
66708;DHT22;53622;0.000;0.000;2022-11-20T11:35:49;21.70;58.90
66708;DHT22;53622;0.000;0.000;2022-11-20T11:38:30;21.70;58.90
66708;DHT22;53622;0.000;0.000;2022-11-20T11:41:01;21.70;58.90
66708;DHT22;53622;0.000;0.000;2022-11-20T11:43:33;21.80;58.80
66708;DHT22;53622;0.000;0.000;2022-11-20T11:46:27;21.80;58.60
66708;DHT22;53622;0.000;0.000;2022-11-20T11:48:59;21.80;58.70
66708;DHT22;53622;0.000;0.000;2022-11-20T11:51:34;21.80;58.00
66708;DHT22;53622;0.000;0.000;2022-11-20T11:54:15;21.70;58.50
66708;DHT22;53622;0.000;0.000;2022-11-20T11:56:45;21.70;57.60
66708;DHT22;53622;0.000;0.000;2022-11-20T11:59:22;21.70;57.60
66708;DHT22;53622;0.000;0.000;2022-11-20T12:01:55;21.70;57.00
66708;DHT22;53622;0.000;0.000;2022-11-20T12:04:40;21.60;57.70
66708;DHT22;53622;0.000;0.000;2022-11-20T12:07:15;21.80;59.20
66708;DHT22;53622;0.000;0.000;2022-11-20T12:10:14;21.80;59.60
66708;DHT22;53622;0.000;0.000;2022-11-20T12:12:48;21.80;59.90
66708;DHT22;53622;0.000;0.000;2022-11-20T12:15:29;21.80;60.30
66708;DHT22;53622;0.000;0.000;2022-11-20T12:17:59;21.80;62.50
66708;DHT22;53622;0.000;0.000;2022-11-20T12:20:33;21.90;62.50
66708;DHT22;53622;0.000;0.000;2022-11-20T12:23:09;21.90;63.70
66708;DHT22;53622;0.000;0.000;2022-11-20T12:25:44;21.90;63.10
66708;DHT22;53622;0.000;0.000;2022-11-20T12:31:26;21.90;62.90
66708;DHT22;53622;0.000;0.000;2022-11-20T12:37:05;22.00;62.60
66708;DHT22;53622;0.000;0.000;2022-11-20T12:39:41;22.00;61.90
66708;DHT22;53622;0.000;0.000;2022-11-20T12:42:31;22.00;61.60
66708;DHT22;53622;0.000;0.000;2022-11-20T12:48:41;22.10;61.40
66708;DHT22;53622;0.000;0.000;2022-11-20T12:51:35;22.10;61.60
66708;DHT22;53622;0.000;0.000;2022-11-20T12:57:06;22.10;60.80
66708;DHT22;53622;0.000;0.000;2022-11-20T12:59:52;22.00;60.90
66708;DHT22;53622;0.000;0.000;2022-11-20T13:02:27;21.90;59.70
66708;DHT22;53622;0.000;0.000;2022-11-20T13:05:08;21.80;60.30
66708;DHT22;53622;0.000;0.000;2022-11-20T13:07:42;21.80;60.20
66708;DHT22;53622;0.000;0.000;2022-11-20T13:10:18;21.80;60.30
66708;DHT22;53622;0.000;0.000;2022-11-20T13:12:52;21.80;60.20
66708;DHT22;53622;0.000;0.000;2022-11-20T13:15:36;21.80;60.20
66708;DHT22;53622;0.000;0.000;2022-11-20T13:18:09;21.80;60.00
66708;DHT22;53622;0.000;0.000;2022-11-20T13:20:42;21.70;60.00
66708;DHT22;53622;0.000;0.000;2022-11-20T13:23:22;21.70;60.20
66708;DHT22;53622;0.000;0.000;2022-11-20T13:26:02;21.70;60.30
66708;DHT22;53622;0.000;0.000;2022-11-20T13:28:31;21.70;60.40
66708;DHT22;53622;0.000;0.000;2022-11-20T13:31:02;21.60;60.50
66708;DHT22;53622;0.000;0.000;2022-11-20T13:33:33;21.60;60.60
66708;DHT22;53622;0.000;0.000;2022-11-20T13:36:05;21.60;60.80
66708;DHT22;53622;0.000;0.000;2022-11-20T13:38:43;21.60;60.80
66708;DHT22;53622;0.000;0.000;2022-11-20T13:41:23;21.60;61.70
66708;DHT22;53622;0.000;0.000;2022-11-20T13:44:13;21.50;61.00
66708;DHT22;53622;0.000;0.000;2022-11-20T13:46:46;21.50;61.10
66708;DHT22;53622;0.000;0.000;2022-11-20T13:49:18;21.50;61.00
66708;DHT22;53622;0.000;0.000;2022-11-20T13:51:52;21.50;61.00
66708;DHT22;53622;0.000;0.000;2022-11-20T13:54:55;21.40;60.90
66708;DHT22;53622;0.000;0.000;2022-11-20T13:57:51;21.40;61.10
66708;DHT22;53622;0.000;0.000;2022-11-20T14:00:24;21.40;61.20
66708;DHT22;53622;0.000;0.000;2022-11-20T14:03:06;21.30;61.20
66708;DHT22;53622;0.000;0.000;2022-11-20T14:05:40;21.30;61.30
66708;DHT22;53622;0.000;0.000;2022-11-20T14:08:23;21.30;61.40
66708;DHT22;53622;0.000;0.000;2022-11-20T14:11:06;21.30;61.50
66708;DHT22;53622;0.000;0.000;2022-11-20T14:13:55;21.30;61.50
66708;DHT22;53622;0.000;0.000;2022-11-20T14:16:27;21.30;61.60
66708;DHT22;53622;0.000;0.000;2022-11-20T14:19:23;21.20;61.50
66708;DHT22;53622;0.000;0.000;2022-11-20T14:22:06;21.30;61.60
66708;DHT22;53622;0.000;0.000;2022-11-20T14:24:35;21.20;61.60
66708;DHT22;53622;0.000;0.000;2022-11-20T14:27:09;21.20;61.70
66708;DHT22;53622;0.000;0.000;2022-11-20T14:29:40;21.20;61.70
66708;DHT22;53622;0.000;0.000;2022-11-20T14:32:10;21.10;61.70
66708;DHT22;53622;0.000;0.000;2022-11-20T14:34:44;21.10;61.80
66708;DHT22;53622;0.000;0.000;2022-11-20T14:37:25;21.10;61.90
66708;DHT22;53622;0.000;0.000;2022-11-20T14:39:56;21.10;61.90
66708;DHT22;53622;0.000;0.000;2022-11-20T14:42:28;21.10;61.90
66708;DHT22;53622;0.000;0.000;2022-11-20T14:44:59;21.10;62.10
66708;DHT22;53622;0.000;0.000;2022-11-20T14:47:30;21.10;62.00
66708;DHT22;53622;0.000;0.000;2022-11-20T14:50:02;21.00;61.90
66708;DHT22;53622;0.000;0.000;2022-11-20T14:52:36;21.00;62.00
66708;DHT22;53622;0.000;0.000;2022-11-20T14:55:07;21.00;62.70
66708;DHT22;53622;0.000;0.000;2022-11-20T14:57:36;21.00;62.70
66708;DHT22;53622;0.000;0.000;2022-11-20T15:00:17;21.00;62.00
66708;DHT22;53622;0.000;0.000;2022-11-20T15:02:49;20.90;62.00
66708;DHT22;53622;0.000;0.000;2022-11-20T15:05:21;20.90;62.20
66708;DHT22;53622;0.000;0.000;2022-11-20T15:08:05;20.90;62.20
66708;DHT22;53622;0.000;0.000;2022-11-20T15:10:35;20.90;62.20
66708;DHT22;53622;0.000;0.000;2022-11-20T15:13:10;20.90;62.30
66708;DHT22;53622;0.000;0.000;2022-11-20T15:15:45;20.90;62.30
66708;DHT22;53622;0.000;0.000;2022-11-20T15:18:17;20.90;62.20
66708;DHT22;53622;0.000;0.000;2022-11-20T15:20:49;20.90;62.10
66708;DHT22;53622;0.000;0.000;2022-11-20T15:23:19;20.90;62.20
66708;DHT22;53622;0.000;0.000;2022-11-20T15:25:48;20.90;62.20
66708;DHT22;53622;0.000;0.000;2022-11-20T15:28:20;20.90;62.20
66708;DHT22;53622;0.000;0.000;2022-11-20T15:30:50;20.90;62.20
66708;DHT22;53622;0.000;0.000;2022-11-20T15:33:19;20.90;62.10
66708;DHT22;53622;0.000;0.000;2022-11-20T15:35:50;20.90;62.10
66708;DHT22;53622;0.000;0.000;2022-11-20T15:38:19;20.90;62.30
66708;DHT22;53622;0.000;0.000;2022-11-20T15:40:48;20.80;62.20
66708;DHT22;53622;0.000;0.000;2022-11-20T15:43:17;20.80;62.30
66708;DHT22;53622;0.000;0.000;2022-11-20T15:45:50;20.80;62.20
66708;DHT22;53622;0.000;0.000;2022-11-20T15:48:21;20.80;62.30
66708;DHT22;53622;0.000;0.000;2022-11-20T15:50:57;20.80;62.20
66708;DHT22;53622;0.000;0.000;2022-11-20T15:53:27;20.70;62.20
66708;DHT22;53622;0.000;0.000;2022-11-20T15:55:57;20.70;62.00
66708;DHT22;53622;0.000;0.000;2022-11-20T15:58:26;20.70;62.10
66708;DHT22;53622;0.000;0.000;2022-11-20T16:00:55;20.70;62.10
66708;DHT22;53622;0.000;0.000;2022-11-20T16:03:24;20.70;62.00
66708;DHT22;53622;0.000;0.000;2022-11-20T16:05:55;20.70;61.90
66708;DHT22;53622;0.000;0.000;2022-11-20T16:08:24;20.70;61.80
66708;DHT22;53622;0.000;0.000;2022-11-20T16:10:54;20.70;62.00
66708;DHT22;53622;0.000;0.000;2022-11-20T16:13:23;20.70;62.00
66708;DHT22;53622;0.000;0.000;2022-11-20T16:16:16;20.70;62.00
66708;DHT22;53622;0.000;0.000;2022-11-20T16:18:47;20.60;62.00
66708;DHT22;53622;0.000;0.000;2022-11-20T16:21:18;20.60;62.00
66708;DHT22;53622;0.000;0.000;2022-11-20T16:23:47;20.60;61.80
66708;DHT22;53622;0.000;0.000;2022-11-20T16:26:17;20.60;62.00
66708;DHT22;53622;0.000;0.000;2022-11-20T16:28:46;20.60;62.20
66708;DHT22;53622;0.000;0.000;2022-11-20T16:31:17;20.60;62.20
66708;DHT22;53622;0.000;0.000;2022-11-20T16:33:49;20.60;62.20